createdAt,value
2022-08-16T00:02:12.891Z,8.20
2022-08-16T00:08:10.409Z,9.60
2022-08-16T00:14:08.727Z,11.00
2022-08-16T00:19:53.606Z,10.80
2022-08-16T00:25:00.015Z,8.70
2022-08-16T00:30:43.517Z,10.00
2022-08-16T00:36:10.869Z,11.60
2022-08-16T00:41:51.642Z,9.60
2022-08-16T00:48:30.445Z,10.00
2022-08-16T00:53:40.387Z,11.20
2022-08-16T00:58:53.337Z,10.70
2022-08-16T01:04:41.323Z,12.80
2022-08-16T01:10:38.060Z,14.50
2022-08-16T01:16:29.716Z,12.80
2022-08-16T01:23:08.461Z,11.10
2022-08-16T01:29:23.124Z,10.40
2022-08-16T01:34:56.955Z,11.00
2022-08-16T01:40:34.866Z,12.10
2022-08-16T01:46:46.831Z,12.50
2022-08-16T01:53:05.152Z,13.00
2022-08-16T01:59:30.646Z,10.50
2022-08-16T02:05:09.772Z,10.30
2022-08-16T02:11:55.444Z,11.80
2022-08-16T02:17:21.302Z,10.50
2022-08-16T02:23:50.935Z,11.40
2022-08-16T02:29:48.081Z,13.00
2022-08-16T02:35:01.177Z,10.70
2022-08-16T02:41:28.191Z,13.90
2022-08-16T02:48:29.751Z,12.50
2022-08-16T02:54:35.496Z,10.60
2022-08-16T03:00:45.554Z,14.00
2022-08-16T03:07:06.461Z,20.70
2022-08-16T03:13:30.474Z,12.50
2022-08-16T03:20:02.457Z,13.40
2022-08-16T03:26:28.220Z,14.30
2022-08-16T03:32:19.624Z,14.00
2022-08-16T03:38:45.383Z,11.30
2022-08-16T03:44:00.420Z,13.80
2022-08-16T03:49:42.291Z,14.50
2022-08-16T03:55:45.769Z,12.10
2022-08-16T04:01:43.514Z,13.20
2022-08-16T04:07:44.070Z,12.80
2022-08-16T04:14:01.250Z,13.20
2022-08-16T04:19:36.906Z,14.30
2022-08-16T04:25:30.787Z,15.70
2022-08-16T04:31:07.234Z,12.50
2022-08-16T04:37:12.321Z,12.10
2022-08-16T04:42:38.435Z,15.20
2022-08-16T04:48:32.379Z,10.30
2022-08-16T04:54:10.747Z,11.10
2022-08-16T05:00:32.373Z,11.60
2022-08-16T05:06:13.804Z,13.90
2022-08-16T05:11:49.764Z,11.80
2022-08-16T05:17:59.096Z,16.70
2022-08-16T05:23:38.415Z,13.10
2022-08-16T05:29:57.041Z,15.60
2022-08-16T05:36:14.451Z,12.50
2022-08-16T05:42:09.553Z,15.10
2022-08-16T05:48:21.846Z,12.00
2022-08-16T05:53:40.447Z,12.40
2022-08-16T05:59:09.851Z,17.40
2022-08-16T06:04:36.603Z,13.70
2022-08-16T06:10:15.297Z,11.80
2022-08-16T06:15:42.224Z,12.50
2022-08-16T06:21:03.138Z,15.30
2022-08-16T06:26:08.639Z,13.40
2022-08-16T06:31:48.997Z,14.00
2022-08-16T06:36:59.565Z,10.90
2022-08-16T06:42:04.141Z,16.40
2022-08-16T06:48:08.925Z,12.30
2022-08-16T06:53:34.880Z,12.80
2022-08-16T06:58:38.270Z,12.90
2022-08-16T07:04:04.434Z,10.50
2022-08-16T07:09:55.204Z,12.30
2022-08-16T07:15:27.603Z,11.70
2022-08-16T07:20:49.901Z,12.20
2022-08-16T07:26:26.830Z,11.10
2022-08-16T07:31:38.130Z,11.20
2022-08-16T07:36:51.291Z,10.50
2022-08-16T07:42:20.382Z,11.70
2022-08-16T07:47:53.591Z,8.40
2022-08-16T07:53:28.991Z,8.20
2022-08-16T07:58:37.893Z,9.40
2022-08-16T08:03:49.376Z,8.50
2022-08-16T08:08:59.323Z,7.80
2022-08-16T08:14:30.126Z,8.40
2022-08-16T08:19:53.719Z,8.70
2022-08-16T08:25:03.743Z,7.30
2022-08-16T08:30:51.320Z,8.50
2022-08-16T08:35:42.702Z,8.00
2022-08-16T08:40:51.092Z,8.50
2022-08-16T08:46:28.720Z,9.10
2022-08-16T08:51:41.371Z,8.50
2022-08-16T08:56:51.769Z,7.70
2022-08-16T09:02:42.581Z,10.50
2022-08-16T09:08:00.869Z,8.20
2022-08-16T09:13:21.415Z,10.00
2022-08-16T09:18:35.686Z,9.10
2022-08-16T09:23:41.851Z,8.60
2022-08-16T09:29:16.944Z,8.50
2022-08-16T09:34:20.613Z,8.20
2022-08-16T09:39:41.382Z,8.20
2022-08-16T09:45:17.967Z,9.30
2022-08-16T09:50:39.993Z,8.50
2022-08-16T09:56:11.374Z,7.90
2022-08-16T10:01:13.909Z,8.40
2022-08-16T10:06:20.768Z,9.00
2022-08-16T10:11:50.492Z,8.10
2022-08-16T10:17:00.125Z,10.80
2022-08-16T10:22:24.723Z,7.10
2022-08-16T10:27:46.900Z,6.80
2022-08-16T10:32:56.246Z,7.20
2022-08-16T10:38:27.403Z,9.70
2022-08-16T10:43:50.361Z,6.90
2022-08-16T10:48:53.339Z,10.30
2022-08-16T10:54:04.895Z,11.90
2022-08-16T11:15:55.572Z,5.90
2022-08-16T11:20:59.632Z,7.30
2022-08-16T11:26:23.903Z,7.50
2022-08-16T11:31:27.548Z,8.60
2022-08-16T11:36:37.912Z,7.50
2022-08-16T11:41:43.789Z,8.30
2022-08-16T11:46:52.267Z,7.90
2022-08-16T11:51:56.723Z,9.10
2022-08-16T11:57:01.077Z,8.00
2022-08-16T12:02:31.318Z,11.70
2022-08-16T12:07:28.574Z,8.70
2022-08-16T12:12:32.774Z,9.70
2022-08-16T12:17:37.870Z,9.30
2022-08-16T12:22:40.795Z,10.00
2022-08-16T12:27:44.872Z,8.70
2022-08-16T12:33:05.011Z,8.30
2022-08-16T12:38:41.302Z,8.60
2022-08-16T12:43:45.425Z,7.90
2022-08-16T12:48:59.939Z,9.80
2022-08-16T12:54:04.764Z,9.20
2022-08-16T12:59:14.772Z,7.30
2022-08-16T13:04:24.893Z,7.00
2022-08-16T13:09:30.341Z,6.90
2022-08-16T13:14:39.760Z,7.10
2022-08-16T13:25:08.857Z,9.20
2022-08-16T13:30:41.890Z,7.20
2022-08-16T13:35:56.214Z,8.70
2022-08-16T13:41:26.049Z,6.90
2022-08-16T13:46:33.587Z,6.80
2022-08-16T13:51:35.716Z,7.80
2022-08-16T13:56:42.616Z,6.90
2022-08-16T14:01:55.793Z,7.40
2022-08-16T14:07:03.178Z,6.80
2022-08-16T14:12:17.973Z,7.60
2022-08-16T14:17:21.604Z,7.80
2022-08-16T14:22:35.855Z,11.30
2022-08-16T14:27:43.507Z,6.90
2022-08-16T14:32:51.194Z,8.20
2022-08-16T14:37:57.143Z,7.30
2022-08-16T14:43:06.979Z,9.20
2022-08-16T14:48:09.778Z,7.10
2022-08-16T14:53:17.906Z,7.30
2022-08-16T14:58:34.779Z,7.00
2022-08-16T15:03:45.108Z,6.70
2022-08-16T15:08:49.884Z,7.20
2022-08-16T15:14:04.262Z,8.40
2022-08-16T15:19:29.072Z,8.30
2022-08-16T15:24:34.672Z,7.40
2022-08-16T15:29:52.278Z,7.70
2022-08-16T15:35:03.609Z,7.50
2022-08-16T15:40:31.929Z,6.80
2022-08-16T15:45:57.154Z,8.90
2022-08-16T15:51:05.394Z,6.50
2022-08-16T15:56:13.849Z,7.10
2022-08-16T16:01:32.537Z,9.20
2022-08-16T16:06:36.299Z,7.00
2022-08-16T16:11:43.125Z,11.30
2022-08-16T16:16:50.577Z,8.80
2022-08-16T16:22:15.354Z,7.10
2022-08-16T16:27:31.968Z,7.30
2022-08-16T16:33:07.327Z,7.80
2022-08-16T16:38:09.319Z,7.90
2022-08-16T16:43:13.866Z,6.40
2022-08-16T16:48:29.785Z,6.70
2022-08-16T16:53:46.397Z,6.60
2022-08-16T16:59:02.890Z,6.00
2022-08-16T17:04:22.128Z,5.60
2022-08-16T17:09:30.046Z,5.90
2022-08-16T17:14:44.293Z,9.60
2022-08-16T17:19:59.322Z,6.80
2022-08-16T17:25:27.261Z,6.70
2022-08-16T17:30:45.807Z,6.90
2022-08-16T17:35:55.200Z,7.20
2022-08-16T17:41:02.314Z,11.40
2022-08-16T17:46:51.286Z,8.70
2022-08-16T17:52:03.955Z,7.50
2022-08-16T17:57:15.248Z,8.50
2022-08-16T18:02:44.097Z,9.90
2022-08-16T18:07:55.651Z,8.90
2022-08-16T18:13:26.042Z,10.10
2022-08-16T18:19:05.712Z,14.00
2022-08-16T18:24:15.313Z,11.20
2022-08-16T18:29:53.941Z,9.70
2022-08-16T18:35:22.691Z,11.20
2022-08-16T18:40:47.459Z,10.50
2022-08-16T18:46:15.524Z,12.30
2022-08-16T18:51:24.790Z,9.80
2022-08-16T18:56:56.298Z,14.10
2022-08-16T19:02:05.882Z,11.10
2022-08-16T19:07:48.269Z,11.80
2022-08-16T19:12:51.148Z,10.50
2022-08-16T19:18:23.691Z,10.00
2022-08-16T19:23:48.657Z,11.50
2022-08-16T19:30:44.347Z,11.40
2022-08-16T19:36:30.581Z,9.50
2022-08-16T19:41:54.600Z,10.20
2022-08-16T19:47:00.303Z,11.00
2022-08-16T19:52:24.096Z,9.80
2022-08-16T19:57:47.996Z,14.80
2022-08-16T20:03:01.800Z,19.40
2022-08-16T20:08:06.218Z,14.10
2022-08-16T20:13:14.550Z,14.20
2022-08-16T20:18:21.333Z,13.80
2022-08-16T20:23:28.009Z,15.60
2022-08-16T20:29:09.946Z,13.10
2022-08-16T20:34:16.887Z,11.80
2022-08-16T20:39:19.494Z,11.50
2022-08-16T20:44:25.397Z,16.90
2022-08-16T20:49:28.570Z,14.90
2022-08-16T20:54:31.039Z,15.60
2022-08-16T20:59:48.033Z,14.90
2022-08-16T21:04:52.694Z,14.70
2022-08-16T21:10:00.618Z,12.00
2022-08-16T21:15:17.021Z,12.50
2022-08-16T21:20:28.499Z,15.70
2022-08-16T21:25:37.510Z,16.30
2022-08-16T21:30:57.391Z,15.80
2022-08-16T21:36:35.454Z,14.70
2022-08-16T21:41:41.088Z,17.50
2022-08-16T21:46:43.766Z,16.90
2022-08-16T21:51:58.593Z,15.00
2022-08-16T21:57:43.275Z,15.70
2022-08-16T22:02:56.032Z,15.90
2022-08-16T22:08:09.748Z,15.60
2022-08-16T22:13:30.571Z,15.90
2022-08-16T22:19:28.355Z,14.00
2022-08-16T22:24:50.916Z,13.90
2022-08-16T22:30:54.666Z,13.70
2022-08-16T22:36:28.240Z,13.80
2022-08-16T22:41:52.142Z,14.30
2022-08-16T22:47:30.560Z,11.70
2022-08-16T22:53:17.233Z,13.20
2022-08-16T22:58:46.340Z,15.70
2022-08-16T23:03:55.864Z,16.10
2022-08-16T23:09:19.582Z,15.60
2022-08-16T23:14:38.914Z,13.60
2022-08-16T23:20:52.753Z,18.70
2022-08-16T23:26:50.300Z,16.30
2022-08-16T23:32:24.747Z,14.40
2022-08-16T23:37:48.689Z,13.20
2022-08-16T23:43:52.025Z,13.60
2022-08-16T23:49:57.444Z,13.70
2022-08-16T23:54:56.613Z,13.40
